Time;durP1;ratioP1;P1;durP2;ratioP2;P2;SDS_P1;SDS_P2;PMS_P1;PMS_P2;Temp;Humidity;BMP_temperature;BMP_pressure;BME280_temperature;BME280_humidity;BME280_pressure;Samples;Min_cycle;Max_cycle;Signal;HPM_P1;HPM_P2
2023/03/18 00:01:29;;;;;;;;;;;12.30;99.90;;;;;;5070888;28;19948;-38
2023/03/18 00:03:56;;;;;;;;;;;12.30;99.90;;;;;;5071766;28;20020;-38
2023/03/18 00:06:24;;;;;;;;;;;12.30;99.90;;;;;;5051146;28;20439;-39
2023/03/18 00:08:51;;;;;;;;;;;12.30;99.90;;;;;;5071323;28;20328;-39
2023/03/18 00:11:18;;;;;;;;;;;12.30;99.90;;;;;;5070612;28;19952;-38
2023/03/18 00:13:45;;;;;;;;;;;12.40;99.90;;;;;;5037685;28;19945;-37
2023/03/18 00:16:12;;;;;;;;;;;12.30;99.90;;;;;;5061350;28;20415;-39
2023/03/18 00:18:39;;;;;;;;;;;12.30;99.90;;;;;;5072096;28;20103;-39
2023/03/18 00:21:05;;;;;;;;;;;12.30;99.90;;;;;;5072632;28;19941;-38
2023/03/18 00:23:33;;;;;;;;;;;12.30;99.90;;;;;;5053468;28;19970;-38
2023/03/18 00:26:00;;;;;;;;;;;12.30;99.90;;;;;;5053321;28;20357;-39
2023/03/18 00:28:27;;;;;;;;;;;12.40;99.90;;;;;;5072459;28;19953;-39
2023/03/18 00:30:54;;;;;;;;;;;12.40;99.90;;;;;;5072153;28;20316;-38
2023/03/18 00:33:22;;;;;;;;;;;12.30;99.90;;;;;;5054294;28;19946;-38
2023/03/18 00:35:49;;;;;;;;;;;12.30;99.90;;;;;;5062260;28;19950;-38
2023/03/18 00:38:19;;;;;;;;;;;12.30;99.90;;;;;;5053645;28;19999;-39
2023/03/18 00:41:00;;;;;;;;;;;12.30;99.90;;;;;;5052726;28;19951;-39
2023/03/18 00:43:28;;;;;;;;;;;12.30;99.90;;;;;;5072430;28;20385;-39
2023/03/18 00:45:55;;;;;;;;;;;12.30;99.90;;;;;;5052976;28;20439;-38
2023/03/18 00:48:22;;;;;;;;;;;12.20;99.90;;;;;;5071912;28;19950;-38
2023/03/18 00:50:49;;;;;;;;;;;12.20;99.90;;;;;;5072160;28;20396;-38
2023/03/18 00:53:15;;;;;;;;;;;12.20;99.90;;;;;;5048780;28;20005;-40
2023/03/18 00:55:42;;;;;;;;;;;12.20;99.90;;;;;;5045633;28;20406;-39
2023/03/18 00:58:11;;;;;;;;;;;12.00;99.90;;;;;;5048342;28;19947;-42
2023/03/18 01:00:38;;;;;;;;;;;12.00;99.90;;;;;;5067233;28;20054;-39
2023/03/18 01:03:05;;;;;;;;;;;12.00;99.90;;;;;;5043157;28;20468;-39
2023/03/18 01:05:32;;;;;;;;;;;11.90;99.90;;;;;;5071496;28;19958;-39
2023/03/18 01:07:58;;;;;;;;;;;11.90;99.90;;;;;;5053942;28;19971;-39
2023/03/18 01:10:26;;;;;;;;;;;11.80;99.90;;;;;;5070869;28;19946;-39
2023/03/18 01:12:52;;;;;;;;;;;11.80;99.90;;;;;;5051680;28;20019;-37
2023/03/18 01:15:20;;;;;;;;;;;11.70;99.90;;;;;;5047667;28;19941;-38
2023/03/18 01:17:48;;;;;;;;;;;11.70;99.90;;;;;;5059561;28;20001;-39
2023/03/18 01:20:16;;;;;;;;;;;11.60;99.90;;;;;;5052567;28;19950;-38
2023/03/18 01:22:43;;;;;;;;;;;11.60;99.90;;;;;;5072078;28;19938;-38
2023/03/18 01:25:10;;;;;;;;;;;11.50;99.90;;;;;;5070861;28;20018;-39
2023/03/18 01:27:37;;;;;;;;;;;11.50;99.90;;;;;;5070694;28;19987;-38
2023/03/18 01:30:04;;;;;;;;;;;11.40;99.90;;;;;;5053010;28;20134;-39
2023/03/18 01:32:33;;;;;;;;;;;11.40;99.90;;;;;;5048508;28;19980;-39
2023/03/18 01:34:59;;;;;;;;;;;11.40;99.90;;;;;;5068360;28;20463;-38
2023/03/18 01:37:27;;;;;;;;;;;11.30;99.90;;;;;;5053005;28;19945;-38
2023/03/18 01:39:54;;;;;;;;;;;11.30;99.90;;;;;;5053579;28;19943;-38
2023/03/18 01:42:21;;;;;;;;;;;11.30;99.90;;;;;;5067517;28;20071;-39
2023/03/18 01:44:48;;;;;;;;;;;11.30;99.90;;;;;;5072850;28;19962;-39
2023/03/18 01:47:16;;;;;;;;;;;11.20;99.90;;;;;;5067055;28;19941;-40
2023/03/18 01:49:44;;;;;;;;;;;11.20;99.90;;;;;;5071347;28;20366;-38
2023/03/18 01:52:14;;;;;;;;;;;11.20;99.90;;;;;;5069333;28;19950;-38
2023/03/18 01:54:42;;;;;;;;;;;11.20;99.90;;;;;;5073660;28;20051;-38
2023/03/18 01:57:08;;;;;;;;;;;11.10;99.90;;;;;;5071020;28;20341;-39
2023/03/18 01:59:37;;;;;;;;;;;11.10;99.90;;;;;;5053996;28;20345;-39
2023/03/18 02:02:05;;;;;;;;;;;11.10;99.90;;;;;;5072050;28;19956;-39
2023/03/18 02:04:32;;;;;;;;;;;11.00;99.90;;;;;;5053336;28;20515;-38
2023/03/18 02:07:01;;;;;;;;;;;11.00;99.90;;;;;;5072687;28;19986;-39
2023/03/18 02:09:28;;;;;;;;;;;10.90;99.90;;;;;;5068916;28;19973;-39
2023/03/18 02:11:55;;;;;;;;;;;10.90;99.90;;;;;;5055164;28;19951;-39
2023/03/18 02:14:22;;;;;;;;;;;10.90;99.90;;;;;;5072485;28;21335;-38
2023/03/18 02:16:52;;;;;;;;;;;10.80;99.90;;;;;;5072745;28;20282;-38
2023/03/18 02:19:22;;;;;;;;;;;10.80;99.90;;;;;;5042436;28;20428;-38
2023/03/18 02:21:51;;;;;;;;;;;10.80;99.90;;;;;;5056154;28;20351;-38
2023/03/18 02:24:22;;;;;;;;;;;10.80;99.90;;;;;;5072007;28;20023;-38
2023/03/18 02:26:51;;;;;;;;;;;10.80;99.90;;;;;;5072419;28;19944;-38
2023/03/18 02:29:20;;;;;;;;;;;10.70;99.90;;;;;;5054090;28;19946;-39
2023/03/18 02:31:46;;;;;;;;;;;10.70;99.90;;;;;;5068018;28;19986;-39
2023/03/18 02:34:13;;;;;;;;;;;10.60;99.90;;;;;;5056059;28;20048;-39
2023/03/18 02:36:40;;;;;;;;;;;10.60;99.90;;;;;;5072854;28;19988;-39
2023/03/18 02:39:07;;;;;;;;;;;10.60;99.90;;;;;;5054691;28;19952;-39
2023/03/18 02:41:34;;;;;;;;;;;10.50;99.90;;;;;;5054375;28;19950;-39
2023/03/18 02:44:00;;;;;;;;;;;10.60;99.90;;;;;;5065602;28;20012;-40
2023/03/18 02:46:30;;;;;;;;;;;10.60;99.90;;;;;;5073077;28;19966;-40
2023/03/18 02:48:57;;;;;;;;;;;10.50;99.90;;;;;;5072148;28;20008;-40
2023/03/18 02:51:25;;;;;;;;;;;10.60;99.90;;;;;;5071930;28;19951;-39
2023/03/18 02:53:51;;;;;;;;;;;10.50;99.90;;;;;;5070033;28;19964;-39
2023/03/18 02:56:18;;;;;;;;;;;10.50;99.90;;;;;;5070998;28;20354;-38
2023/03/18 02:58:45;;;;;;;;;;;10.50;99.90;;;;;;5071440;28;19945;-37
2023/03/18 03:01:12;;;;;;;;;;;10.50;99.90;;;;;;5070354;28;20455;-38
2023/03/18 03:03:40;;;;;;;;;;;10.50;99.90;;;;;;5051861;28;20320;-39
2023/03/18 03:06:07;;;;;;;;;;;10.50;99.90;;;;;;5048025;28;19956;-39
2023/03/18 03:08:34;;;;;;;;;;;10.40;99.90;;;;;;5062071;28;19944;-38
2023/03/18 03:11:01;;;;;;;;;;;10.40;99.90;;;;;;5072364;28;19947;-39
2023/03/18 03:13:28;;;;;;;;;;;10.40;99.90;;;;;;5072686;28;20519;-38
2023/03/18 03:15:54;;;;;;;;;;;10.40;99.90;;;;;;5072010;28;19954;-37
2023/03/18 03:18:21;;;;;;;;;;;10.40;99.90;;;;;;5065687;28;19947;-38
2023/03/18 03:20:49;;;;;;;;;;;10.40;99.90;;;;;;5055258;28;19968;-38
2023/03/18 03:23:16;;;;;;;;;;;10.40;99.90;;;;;;5054704;28;20019;-39
2023/03/18 03:25:43;;;;;;;;;;;10.30;99.90;;;;;;5072078;28;19980;-38
2023/03/18 03:28:10;;;;;;;;;;;10.30;99.90;;;;;;5065733;28;19944;-39
2023/03/18 03:30:37;;;;;;;;;;;10.30;99.90;;;;;;5072924;28;19947;-39
2023/03/18 03:33:04;;;;;;;;;;;10.30;99.90;;;;;;5065520;28;19949;-39
2023/03/18 03:35:30;;;;;;;;;;;10.20;99.90;;;;;;5065898;28;19943;-38
2023/03/18 03:37:58;;;;;;;;;;;10.20;99.90;;;;;;5072879;28;20444;-37
2023/03/18 03:40:26;;;;;;;;;;;10.20;99.90;;;;;;5072430;28;19942;-40
2023/03/18 03:42:53;;;;;;;;;;;10.20;99.90;;;;;;5071162;28;19953;-39
2023/03/18 03:45:20;;;;;;;;;;;10.20;99.90;;;;;;5062276;28;20026;-38
2023/03/18 03:47:46;;;;;;;;;;;10.20;99.90;;;;;;5070897;28;20383;-40
2023/03/18 03:50:13;;;;;;;;;;;10.20;99.90;;;;;;5072412;28;19946;-40
2023/03/18 03:52:40;;;;;;;;;;;10.20;99.90;;;;;;5072035;28;20344;-38
2023/03/18 03:55:09;;;;;;;;;;;10.20;99.90;;;;;;5069862;28;20335;-38
2023/03/18 03:57:36;;;;;;;;;;;10.20;99.90;;;;;;5071725;28;19944;-39
2023/03/18 04:00:03;;;;;;;;;;;10.20;99.90;;;;;;5060694;28;19998;-39
2023/03/18 04:02:30;;;;;;;;;;;10.10;99.90;;;;;;5050208;28;19947;-39
2023/03/18 04:04:57;;;;;;;;;;;10.10;99.90;;;;;;5070511;28;20304;-38
2023/03/18 04:07:24;;;;;;;;;;;10.10;99.90;;;;;;5053510;28;19945;-39
2023/03/18 04:09:50;;;;;;;;;;;10.10;99.90;;;;;;5071859;28;19991;-39
2023/03/18 04:12:18;;;;;;;;;;;10.10;99.90;;;;;;5070192;28;19951;-39
2023/03/18 04:14:46;;;;;;;;;;;10.10;99.90;;;;;;5035712;28;20000;-38
2023/03/18 04:17:12;;;;;;;;;;;10.10;99.90;;;;;;5058855;28;19945;-39
2023/03/18 04:19:39;;;;;;;;;;;10.00;99.90;;;;;;5054830;28;20397;-39
2023/03/18 04:22:06;;;;;;;;;;;10.10;99.90;;;;;;5052443;28;20353;-38
2023/03/18 04:24:32;;;;;;;;;;;10.00;99.90;;;;;;5071945;28;20012;-39
2023/03/18 04:26:59;;;;;;;;;;;10.00;99.90;;;;;;5072379;28;20368;-40
2023/03/18 04:29:27;;;;;;;;;;;10.00;99.90;;;;;;5061481;28;20037;-40
2023/03/18 04:31:55;;;;;;;;;;;10.00;99.90;;;;;;5057117;28;20453;-39
2023/03/18 04:34:22;;;;;;;;;;;10.00;99.90;;;;;;5067470;28;19945;-39
2023/03/18 04:36:48;;;;;;;;;;;10.00;99.90;;;;;;5072195;28;20044;-39
2023/03/18 04:39:15;;;;;;;;;;;10.00;99.90;;;;;;5063502;28;19941;-39
2023/03/18 04:41:42;;;;;;;;;;;10.00;99.90;;;;;;5072404;28;19992;-38
2023/03/18 04:44:08;;;;;;;;;;;10.00;99.90;;;;;;5053379;28;19948;-39
2023/03/18 04:46:36;;;;;;;;;;;9.90;99.90;;;;;;5048192;28;20000;-38
2023/03/18 04:49:03;;;;;;;;;;;10.00;99.90;;;;;;5052124;28;19953;-39
2023/03/18 04:51:30;;;;;;;;;;;9.90;99.90;;;;;;5061645;28;19951;-38
2023/03/18 04:53:56;;;;;;;;;;;9.90;99.90;;;;;;5071103;28;19946;-39
2023/03/18 04:56:23;;;;;;;;;;;10.00;99.90;;;;;;5071009;28;19997;-40
2023/03/18 04:58:50;;;;;;;;;;;10.00;99.90;;;;;;5054116;28;20404;-40
2023/03/18 05:01:16;;;;;;;;;;;10.00;99.90;;;;;;5067245;28;20445;-39
2023/03/18 05:03:44;;;;;;;;;;;10.00;99.90;;;;;;5048597;28;20409;-38
2023/03/18 05:06:14;;;;;;;;;;;10.00;99.90;;;;;;5041522;28;19996;-39
2023/03/18 05:08:41;;;;;;;;;;;10.00;99.90;;;;;;5068236;28;20433;-38
2023/03/18 05:11:07;;;;;;;;;;;10.00;99.90;;;;;;5048792;28;20265;-39
2023/03/18 05:13:34;;;;;;;;;;;10.00;99.90;;;;;;5043329;28;20353;-39
2023/03/18 05:16:01;;;;;;;;;;;10.00;99.90;;;;;;5046861;28;20332;-39
2023/03/18 05:18:27;;;;;;;;;;;10.00;99.90;;;;;;5048907;28;20237;-39
2023/03/18 05:20:55;;;;;;;;;;;10.00;99.90;;;;;;5061655;28;19950;-38
2023/03/18 05:23:22;;;;;;;;;;;10.00;99.90;;;;;;5070859;28;19968;-39
2023/03/18 05:25:49;;;;;;;;;;;10.00;99.90;;;;;;5083500;28;19959;-40
2023/03/18 05:28:16;;;;;;;;;;;10.00;99.90;;;;;;5055226;28;19944;-40
2023/03/18 05:30:42;;;;;;;;;;;9.90;99.90;;;;;;5075048;28;20451;-39
2023/03/18 05:33:09;;;;;;;;;;;9.90;99.90;;;;;;5047137;28;19977;-39
2023/03/18 05:35:36;;;;;;;;;;;10.00;99.90;;;;;;5057541;28;19946;-38
2023/03/18 05:38:05;;;;;;;;;;;9.90;99.90;;;;;;5042344;28;19951;-39
2023/03/18 05:40:32;;;;;;;;;;;10.00;99.90;;;;;;5060714;28;19954;-39
2023/03/18 05:42:58;;;;;;;;;;;10.00;99.90;;;;;;5066444;28;19946;-39
2023/03/18 05:45:25;;;;;;;;;;;10.00;99.90;;;;;;5044631;28;19954;-40
2023/03/18 05:47:52;;;;;;;;;;;10.00;99.90;;;;;;5055765;28;19955;-40
2023/03/18 05:50:25;;;;;;;;;;;10.00;99.90;;;;;;5075303;28;19983;-40
2023/03/18 05:52:52;;;;;;;;;;;10.00;99.90;;;;;;5072606;28;19997;-40
2023/03/18 05:55:20;;;;;;;;;;;10.00;99.90;;;;;;5056144;28;19999;-39
2023/03/18 05:57:47;;;;;;;;;;;10.00;99.90;;;;;;5071098;28;19998;-39
2023/03/18 06:00:14;;;;;;;;;;;10.00;99.90;;;;;;5037246;28;20000;-39
2023/03/18 06:02:41;;;;;;;;;;;10.00;99.90;;;;;;5052760;28;19986;-38
2023/03/18 06:05:09;;;;;;;;;;;10.10;99.90;;;;;;5054630;28;19977;-39
2023/03/18 06:07:36;;;;;;;;;;;10.00;99.90;;;;;;5070213;28;19957;-39
2023/03/18 06:10:03;;;;;;;;;;;10.00;99.90;;;;;;5058784;28;20040;-38
2023/03/18 06:12:31;;;;;;;;;;;10.00;99.90;;;;;;5067290;28;20015;-39
2023/03/18 06:14:58;;;;;;;;;;;10.10;99.90;;;;;;5056439;28;20004;-39
2023/03/18 06:17:25;;;;;;;;;;;10.00;99.90;;;;;;5037185;28;19950;-39
2023/03/18 06:19:51;;;;;;;;;;;10.00;99.90;;;;;;5049204;28;19948;-40
2023/03/18 06:22:18;;;;;;;;;;;10.00;99.90;;;;;;5055021;28;19999;-40
2023/03/18 06:24:45;;;;;;;;;;;10.00;99.90;;;;;;5045886;28;20012;-40
2023/03/18 06:27:11;;;;;;;;;;;10.00;99.90;;;;;;5042673;28;20009;-40
2023/03/18 06:29:39;;;;;;;;;;;10.10;99.90;;;;;;5058606;28;20003;-40
2023/03/18 06:32:06;;;;;;;;;;;10.00;99.90;;;;;;5054813;28;20210;-39
2023/03/18 06:34:34;;;;;;;;;;;10.00;99.90;;;;;;5039240;28;19949;-39
2023/03/18 06:37:00;;;;;;;;;;;10.00;99.90;;;;;;5069606;28;20366;-39
2023/03/18 06:39:28;;;;;;;;;;;10.00;99.90;;;;;;5058507;28;20041;-38
2023/03/18 06:41:54;;;;;;;;;;;10.00;99.90;;;;;;5043014;28;20053;-37
2023/03/18 06:44:21;;;;;;;;;;;10.00;99.90;;;;;;5071287;28;20305;-40
2023/03/18 06:46:49;;;;;;;;;;;10.00;99.90;;;;;;5060621;28;19960;-39
2023/03/18 06:49:15;;;;;;;;;;;10.00;99.90;;;;;;5049390;28;19949;-39
2023/03/18 06:51:42;;;;;;;;;;;10.00;99.90;;;;;;5072773;28;20423;-38
2023/03/18 06:54:09;;;;;;;;;;;10.00;99.90;;;;;;5055381;28;19946;-39
2023/03/18 06:56:37;;;;;;;;;;;10.10;99.90;;;;;;5074202;28;19950;-39
2023/03/18 06:59:04;;;;;;;;;;;10.10;99.90;;;;;;5060489;28;19988;-40
2023/03/18 07:01:31;;;;;;;;;;;10.10;99.90;;;;;;5063354;28;19941;-37
2023/03/18 07:03:59;;;;;;;;;;;10.20;99.90;;;;;;5049647;28;19942;-39
2023/03/18 07:06:26;;;;;;;;;;;10.20;99.90;;;;;;5048584;28;19966;-39
2023/03/18 07:08:53;;;;;;;;;;;10.30;99.90;;;;;;5055943;28;20017;-38
2023/03/18 07:11:20;;;;;;;;;;;10.30;99.90;;;;;;5060016;28;19947;-39
2023/03/18 07:13:47;;;;;;;;;;;10.40;99.90;;;;;;5044881;28;20038;-38
2023/03/18 07:16:14;;;;;;;;;;;10.40;99.90;;;;;;5056094;28;19947;-40
2023/03/18 07:18:41;;;;;;;;;;;10.50;99.90;;;;;;5067439;28;19941;-39
2023/03/18 07:21:10;;;;;;;;;;;10.50;99.90;;;;;;5045570;28;19956;-39
2023/03/18 07:23:37;;;;;;;;;;;10.50;99.90;;;;;;5059660;28;20074;-39
2023/03/18 07:26:04;;;;;;;;;;;10.50;99.90;;;;;;5054863;28;19965;-39
2023/03/18 07:28:31;;;;;;;;;;;10.60;99.90;;;;;;5056494;28;19991;-39
2023/03/18 07:30:58;;;;;;;;;;;10.60;99.90;;;;;;5050935;28;19952;-39
2023/03/18 07:33:24;;;;;;;;;;;10.60;99.90;;;;;;5038776;28;19996;-40
2023/03/18 07:35:51;;;;;;;;;;;10.60;99.90;;;;;;5057879;28;19989;-39
2023/03/18 07:38:19;;;;;;;;;;;10.70;99.90;;;;;;5067666;28;19943;-38
2023/03/18 07:40:47;;;;;;;;;;;10.60;99.90;;;;;;5068362;28;20458;-39
2023/03/18 07:43:14;;;;;;;;;;;10.70;99.90;;;;;;5066494;28;19950;-39
2023/03/18 07:45:40;;;;;;;;;;;10.70;99.90;;;;;;5041061;28;19941;-42
2023/03/18 07:48:07;;;;;;;;;;;10.60;99.90;;;;;;5071060;28;20008;-44
2023/03/18 07:50:34;;;;;;;;;;;10.60;99.90;;;;;;5077656;28;19943;-40
2023/03/18 07:53:01;;;;;;;;;;;10.60;99.90;;;;;;5052855;28;20482;-40
2023/03/18 07:55:29;;;;;;;;;;;10.60;99.90;;;;;;5053015;28;20013;-46
2023/03/18 07:57:55;;;;;;;;;;;10.60;99.90;;;;;;5053747;28;20073;-44
2023/03/18 08:00:22;;;;;;;;;;;10.60;99.90;;;;;;5056096;28;19942;-44
2023/03/18 08:02:49;;;;;;;;;;;10.60;99.90;;;;;;5076657;28;19951;-46
2023/03/18 08:05:17;;;;;;;;;;;10.60;99.90;;;;;;5061136;28;19988;-44
2023/03/18 08:07:44;;;;;;;;;;;10.60;99.90;;;;;;5071205;28;20439;-42
2023/03/18 08:10:11;;;;;;;;;;;10.60;99.90;;;;;;5053846;28;19952;-44
2023/03/18 08:12:40;;;;;;;;;;;10.60;99.90;;;;;;5069808;28;19972;-43
2023/03/18 08:15:08;;;;;;;;;;;10.70;99.90;;;;;;5065528;28;19942;-41
2023/03/18 08:17:34;;;;;;;;;;;10.70;99.90;;;;;;5050898;28;19943;-45
2023/03/18 08:20:01;;;;;;;;;;;10.70;99.90;;;;;;5056919;28;19945;-43
2023/03/18 08:22:28;;;;;;;;;;;10.80;99.90;;;;;;5071445;28;20381;-43
2023/03/18 08:24:56;;;;;;;;;;;10.90;99.90;;;;;;5057449;28;19979;-43
2023/03/18 08:27:23;;;;;;;;;;;10.90;99.90;;;;;;5041247;28;19974;-44
2023/03/18 08:29:51;;;;;;;;;;;10.90;99.90;;;;;;5048322;28;20000;-44
2023/03/18 08:32:19;;;;;;;;;;;11.00;99.90;;;;;;5064858;28;19952;-44
2023/03/18 08:34:45;;;;;;;;;;;11.10;99.90;;;;;;5074962;28;19950;-40
2023/03/18 08:37:13;;;;;;;;;;;11.10;99.90;;;;;;5070997;28;20364;-43
2023/03/18 08:39:40;;;;;;;;;;;11.20;99.90;;;;;;5050801;28;19948;-43
2023/03/18 08:42:06;;;;;;;;;;;11.20;99.90;;;;;;5068340;28;19977;-44
2023/03/18 08:44:33;;;;;;;;;;;11.30;99.90;;;;;;5039760;28;19949;-45
2023/03/18 08:47:01;;;;;;;;;;;11.30;99.90;;;;;;5062641;28;20002;-41
2023/03/18 08:49:28;;;;;;;;;;;11.40;99.90;;;;;;5066454;28;19972;-43
2023/03/18 08:51:55;;;;;;;;;;;11.50;99.90;;;;;;5059863;28;19953;-40
2023/03/18 08:54:22;;;;;;;;;;;11.50;99.90;;;;;;5048345;28;19946;-40
2023/03/18 08:56:48;;;;;;;;;;;11.60;99.90;;;;;;5050125;28;20000;-42
2023/03/18 08:59:16;;;;;;;;;;;11.60;99.90;;;;;;5068946;28;20354;-40
2023/03/18 09:01:43;;;;;;;;;;;11.80;99.90;;;;;;5048883;28;19962;-39
2023/03/18 09:04:12;;;;;;;;;;;11.80;99.90;;;;;;5072194;28;19989;-42
2023/03/18 09:06:38;;;;;;;;;;;11.90;99.90;;;;;;5060718;28;19958;-42
2023/03/18 09:09:05;;;;;;;;;;;12.00;99.90;;;;;;5070563;28;20336;-42
2023/03/18 09:11:32;;;;;;;;;;;12.20;99.90;;;;;;5053191;28;19948;-40
2023/03/18 09:13:59;;;;;;;;;;;12.30;99.90;;;;;;5050979;28;20424;-40
2023/03/18 09:16:25;;;;;;;;;;;12.50;99.90;;;;;;5050866;28;20457;-41
2023/03/18 09:18:52;;;;;;;;;;;12.70;99.90;;;;;;5071131;28;20317;-41
2023/03/18 09:21:21;;;;;;;;;;;12.80;99.90;;;;;;5053715;28;20295;-40
2023/03/18 09:23:48;;;;;;;;;;;13.00;99.90;;;;;;5071583;28;19990;-41
2023/03/18 09:26:15;;;;;;;;;;;13.20;99.90;;;;;;5071826;28;20000;-40
2023/03/18 09:28:41;;;;;;;;;;;13.40;99.90;;;;;;5056742;28;19963;-42
2023/03/18 09:31:08;;;;;;;;;;;13.60;99.90;;;;;;5053808;28;20382;-42
2023/03/18 09:33:35;;;;;;;;;;;13.70;99.90;;;;;;5052707;28;19942;-40
2023/03/18 09:36:03;;;;;;;;;;;13.80;99.90;;;;;;5071101;28;20331;-40
2023/03/18 09:38:31;;;;;;;;;;;13.80;99.90;;;;;;5054353;28;19943;-41
2023/03/18 09:41:01;;;;;;;;;;;13.80;99.90;;;;;;5075321;28;20006;-41
2023/03/18 09:43:46;;;;;;;;;;;13.80;99.90;;;;;;5079298;28;19945;-40
2023/03/18 09:46:14;;;;;;;;;;;13.70;99.90;;;;;;5054346;28;20039;-39
2023/03/18 09:48:44;;;;;;;;;;;13.60;99.90;;;;;;5070612;28;19956;-40
2023/03/18 09:51:14;;;;;;;;;;;13.60;99.90;;;;;;5056881;28;19953;-40
2023/03/18 09:53:43;;;;;;;;;;;13.60;99.90;;;;;;5068671;28;19953;-39
2023/03/18 09:56:12;;;;;;;;;;;13.60;99.90;;;;;;5052527;28;19942;-38
2023/03/18 09:58:42;;;;;;;;;;;13.60;99.90;;;;;;5066046;28;19945;-39
2023/03/18 10:01:09;;;;;;;;;;;13.50;99.90;;;;;;5052494;28;19945;-40
2023/03/18 10:03:36;;;;;;;;;;;13.50;99.90;;;;;;5073541;28;19949;-39
2023/03/18 10:06:05;;;;;;;;;;;13.50;99.90;;;;;;5072646;28;19998;-39
2023/03/18 10:08:40;;;;;;;;;;;13.50;99.90;;;;;;5055420;28;20328;-39
2023/03/18 10:11:12;;;;;;;;;;;13.40;99.90;;;;;;5063269;28;19951;-39
2023/03/18 10:13:38;;;;;;;;;;;13.50;99.90;;;;;;5071493;28;19943;-39
2023/03/18 10:16:06;;;;;;;;;;;13.50;99.90;;;;;;5056724;28;19943;-41
2023/03/18 10:18:33;;;;;;;;;;;13.50;99.90;;;;;;5055286;28;20323;-38
2023/03/18 10:21:03;;;;;;;;;;;13.50;99.90;;;;;;5057064;28;19946;-39
2023/03/18 10:23:31;;;;;;;;;;;13.50;99.90;;;;;;5070542;28;19984;-39
2023/03/18 10:25:59;;;;;;;;;;;13.60;99.90;;;;;;5053485;28;20393;-39
2023/03/18 10:28:36;;;;;;;;;;;13.60;99.90;;;;;;5063265;28;20014;-39
2023/03/18 10:31:05;;;;;;;;;;;13.70;99.90;;;;;;5053368;28;20459;-39
2023/03/18 10:33:35;;;;;;;;;;;13.80;99.90;;;;;;5069139;28;19984;-38
2023/03/18 10:36:04;;;;;;;;;;;14.00;99.90;;;;;;5055140;28;19947;-39
2023/03/18 10:38:32;;;;;;;;;;;14.10;99.90;;;;;;5056215;28;19948;-38
2023/03/18 10:40:58;;;;;;;;;;;14.20;99.90;;;;;;5070084;28;20415;-38
2023/03/18 10:43:26;;;;;;;;;;;14.40;99.90;;;;;;5072930;28;19985;-38
2023/03/18 10:45:57;;;;;;;;;;;14.40;99.90;;;;;;5079580;28;19949;-38
2023/03/18 10:48:25;;;;;;;;;;;14.50;99.90;;;;;;5053664;28;20053;-38
2023/03/18 10:53:19;;;;;;;34.53;24.95;;;14.50;99.90;;;;;;5080129;28;20561;-36
2023/03/18 10:55:51;;;;;;;31.33;23.13;;;14.60;99.90;;;;;;5074081;28;20509;-36
2023/03/18 10:58:18;;;;;;;26.05;22.15;;;14.60;99.90;;;;;;5051078;28;20773;-35
2023/03/18 11:00:45;;;;;;;24.67;19.25;;;14.70;99.90;;;;;;5073527;28;20055;-36
2023/03/18 11:03:19;;;;;;;23.65;19.58;;;14.70;99.90;;;;;;5057796;28;20053;-36
2023/03/18 11:05:45;;;;;;;21.73;16.73;;;14.70;99.90;;;;;;5065845;28;20057;-36
2023/03/18 11:11:26;;;;;;;23.63;15.48;;;14.80;99.90;;;;;;5079364;28;20996;-35
2023/03/18 11:13:54;;;;;;;19.10;14.63;;;15.00;99.90;;;;;;5066075;28;20055;-36
2023/03/18 11:16:29;;;;;;;18.08;13.65;;;15.20;99.90;;;;;;5074144;28;20052;-35
2023/03/18 11:18:56;;;;;;;15.23;13.10;;;15.50;99.90;;;;;;5064407;28;20127;-36
2023/03/18 11:21:24;;;;;;;15.55;13.20;;;15.70;99.90;;;;;;5066254;28;20131;-35
2023/03/18 11:24:07;;;;;;;16.83;13.43;;;15.90;99.90;;;;;;5060514;28;20060;-35
2023/03/18 11:26:44;;;;;;;16.65;12.85;;;16.10;99.90;;;;;;5061894;28;20048;-36
2023/03/18 11:29:13;;;;;;;16.42;12.82;;;16.30;99.90;;;;;;5062425;28;20131;-36
2023/03/18 11:31:49;;;;;;;13.50;11.30;;;16.40;99.90;;;;;;5063043;28;20045;-36
2023/03/18 11:34:18;;;;;;;15.75;11.15;;;16.40;99.90;;;;;;5065498;28;20056;-36
2023/03/18 11:36:51;;;;;;;12.07;10.25;;;16.30;99.90;;;;;;5062065;28;20037;-36
2023/03/18 11:39:18;;;;;;;17.00;10.73;;;16.10;99.90;;;;;;5064128;28;20053;-35
2023/03/18 11:41:47;;;;;;;15.98;11.13;;;15.90;99.90;;;;;;5061548;28;21259;-35
2023/03/18 11:44:17;;;;;;;14.38;10.90;;;15.90;99.90;;;;;;5074689;28;20546;-35
2023/03/18 11:46:45;;;;;;;16.60;10.70;;;16.00;99.90;;;;;;5063581;28;20056;-36
2023/03/18 11:49:14;;;;;;;12.73;9.30;;;16.10;99.90;;;;;;5060025;28;20408;-35
2023/03/18 11:51:44;;;;;;;13.02;9.45;;;16.30;99.90;;;;;;5061120;28;20052;-36
2023/03/18 11:54:42;;;;;;;12.50;8.95;;;16.50;99.90;;;;;;5063941;28;20044;-35
2023/03/18 11:57:12;;;;;;;11.52;8.65;;;16.60;99.90;;;;;;5035088;28;20049;-35
2023/03/18 11:59:45;;;;;;;10.48;7.80;;;16.80;99.90;;;;;;5066081;28;20045;-35
2023/03/18 12:02:29;;;;;;;10.43;7.40;;;17.00;99.90;;;;;;5067082;28;20131;-35
2023/03/18 12:05:15;;;;;;;12.32;7.15;;;17.20;99.90;;;;;;5066280;28;20052;-36
2023/03/18 12:07:49;;;;;;;10.30;7.88;;;17.30;99.90;;;;;;5073281;28;20059;-35
2023/03/18 12:10:19;;;;;;;10.02;6.78;;;17.40;99.90;;;;;;5065925;28;20048;-35
2023/03/18 12:12:59;;;;;;;10.02;7.05;;;17.50;99.90;;;;;;5064525;28;20076;-36
2023/03/18 12:15:35;;;;;;;10.80;6.72;;;17.50;99.90;;;;;;5063743;28;20049;-35
2023/03/18 12:18:06;;;;;;;13.25;8.10;;;17.50;99.90;;;;;;5074064;28;20056;-36
2023/03/18 12:20:51;;;;;;;10.98;8.88;;;17.40;99.90;;;;;;5061844;28;20053;-35
2023/03/18 12:23:36;;;;;;;10.60;8.82;;;17.40;99.90;;;;;;5046584;28;20048;-36
2023/03/18 12:26:04;;;;;;;11.43;8.85;;;17.20;99.90;;;;;;5060865;28;20048;-35
2023/03/18 12:28:41;;;;;;;11.85;8.02;;;17.20;99.90;;;;;;5053109;28;20106;-35
2023/03/18 12:31:34;;;;;;;11.30;7.82;;;17.30;99.90;;;;;;5055304;28;20491;-36
2023/03/18 12:34:01;;;;;;;9.52;7.05;;;17.50;99.90;;;;;;5045609;28;20045;-35
2023/03/18 12:36:47;;;;;;;11.27;7.65;;;17.40;99.90;;;;;;5050195;28;20172;-35
2023/03/18 12:39:44;;;;;;;11.05;7.88;;;17.40;99.90;;;;;;5051449;28;20081;-36
2023/03/18 12:42:12;;;;;;;9.35;7.47;;;17.40;99.90;;;;;;5047442;28;20045;-36
2023/03/18 12:45:02;;;;;;;11.95;7.82;;;17.30;99.90;;;;;;5052908;28;20146;-36
2023/03/18 12:47:32;;;;;;;10.52;7.40;;;17.30;99.90;;;;;;5039752;28;20051;-35
2023/03/18 12:50:00;;;;;;;10.77;7.32;;;17.30;99.90;;;;;;5052502;28;20057;-36
2023/03/18 12:52:30;;;;;;;13.07;7.45;;;17.30;99.90;;;;;;5052777;28;20055;-36
2023/03/18 12:55:00;;;;;;;11.07;7.60;;;17.30;99.90;;;;;;5052712;28;20495;-35
2023/03/18 12:57:32;;;;;;;11.32;7.05;;;17.20;99.90;;;;;;5050014;28;20049;-35
2023/03/18 13:00:05;;;;;;;11.50;8.80;;;17.20;99.90;;;;;;5046709;28;20052;-36
2023/03/18 13:02:42;;;;;;;12.15;9.25;;;17.20;99.90;;;;;;5050593;28;20106;-36
2023/03/18 13:05:17;;;;;;;13.68;10.75;;;17.10;99.90;;;;;;5040718;28;20080;-35
2023/03/18 13:07:46;;;;;;;11.15;9.40;;;17.20;99.90;;;;;;5051810;28;20562;-37
2023/03/18 13:10:19;;;;;;;14.10;9.98;;;17.20;99.90;;;;;;5046956;28;20112;-36
2023/03/18 13:12:46;;;;;;;14.60;9.90;;;17.30;99.90;;;;;;5048642;28;20115;-35
2023/03/18 13:15:18;;;;;;;12.80;9.23;;;17.30;99.90;;;;;;5048090;28;20118;-35
2023/03/18 13:17:45;;;;;;;14.30;9.52;;;17.30;99.90;;;;;;5050588;28;20439;-35
2023/03/18 13:20:13;;;;;;;13.05;8.55;;;17.40;99.90;;;;;;5045407;28;20056;-35
2023/03/18 13:23:02;;;;;;;10.85;8.25;;;17.40;99.90;;;;;;5054979;28;20041;-35
2023/03/18 13:25:34;;;;;;;12.02;8.35;;;17.40;99.90;;;;;;5042025;28;20060;-35
2023/03/18 13:28:14;;;;;;;12.07;8.38;;;17.50;99.90;;;;;;5061351;28;20430;-35
2023/03/18 13:30:53;;;;;;;12.15;8.73;;;17.60;99.90;;;;;;5048494;28;20514;-35
2023/03/18 13:34:14;;;;;;;12.70;8.23;;;17.70;99.90;;;;;;5062834;28;21580;-35
2023/03/18 13:37:09;;;;;;;10.90;8.00;;;17.90;99.90;;;;;;4977083;28;20784;-36
2023/03/18 13:39:47;;;;;;;11.63;8.07;;;18.00;99.90;;;;;;4989297;28;20050;-36
2023/03/18 13:42:24;;;;;;;11.15;8.15;;;18.10;99.90;;;;;;5033069;28;20111;-36
2023/03/18 13:45:00;;;;;;;13.75;8.57;;;18.10;99.90;;;;;;5049370;28;20064;-36
2023/03/18 13:47:32;;;;;;;9.55;7.93;;;18.00;99.90;;;;;;5048072;28;20450;-36
2023/03/18 13:49:59;;;;;;;;;;;18.00;99.90;;;;;;5036925;28;20463;-36
2023/03/18 13:52:29;;;;;;;14.52;9.00;;;17.90;99.90;;;;;;5050900;28;19921;-36
2023/03/18 13:54:59;;;;;;;14.30;8.85;;;17.80;99.90;;;;;;5067347;28;20063;-36
2023/03/18 13:57:47;;;;;;;11.70;8.45;;;17.80;99.90;;;;;;5050964;28;20520;-36
2023/03/18 14:00:29;;;;;;;11.63;7.95;;;17.80;99.90;;;;;;5049014;28;20051;-36
2023/03/18 14:03:18;;;;;;;12.15;6.78;;;17.80;99.90;;;;;;5050823;28;20049;-36
2023/03/18 14:05:45;;;;;;;9.57;6.95;;;17.70;99.90;;;;;;5050007;28;20249;-36
2023/03/18 14:08:47;;;;;;;11.90;7.10;;;17.70;99.90;;;;;;5043080;28;20060;-36